sensor_id;sensor_type;location;lat;lon;timestamp;P1;durP1;ratioP1;P2;durP2;ratioP2
51732;SDS011;39139;53.144;6.244;2023-05-10T00:00:08;13.60;;;12.40;;
51732;SDS011;39139;53.144;6.244;2023-05-10T00:02:35;14.88;;;13.52;;
51732;SDS011;39139;53.144;6.244;2023-05-10T00:05:01;13.90;;;12.60;;
51732;SDS011;39139;53.144;6.244;2023-05-10T00:07:27;12.40;;;11.35;;
51732;SDS011;39139;53.144;6.244;2023-05-10T00:09:52;11.50;;;10.50;;
51732;SDS011;39139;53.144;6.244;2023-05-10T00:12:18;11.80;;;10.63;;
51732;SDS011;39139;53.144;6.244;2023-05-10T00:14:43;10.27;;;9.50;;
51732;SDS011;39139;53.144;6.244;2023-05-10T00:17:10;11.27;;;10.27;;
51732;SDS011;39139;53.144;6.244;2023-05-10T00:19:35;10.30;;;9.40;;
51732;SDS011;39139;53.144;6.244;2023-05-10T00:22:01;10.77;;;9.93;;
51732;SDS011;39139;53.144;6.244;2023-05-10T00:24:27;11.52;;;10.52;;
51732;SDS011;39139;53.144;6.244;2023-05-10T00:26:52;11.65;;;10.68;;
51732;SDS011;39139;53.144;6.244;2023-05-10T00:29:18;13.75;;;12.15;;
51732;SDS011;39139;53.144;6.244;2023-05-10T00:31:44;13.85;;;12.55;;
51732;SDS011;39139;53.144;6.244;2023-05-10T00:34:10;12.85;;;11.73;;
51732;SDS011;39139;53.144;6.244;2023-05-10T00:36:38;14.32;;;12.85;;
51732;SDS011;39139;53.144;6.244;2023-05-10T00:39:04;14.02;;;12.73;;
51732;SDS011;39139;53.144;6.244;2023-05-10T00:41:30;13.23;;;11.10;;
51732;SDS011;39139;53.144;6.244;2023-05-10T00:43:58;11.88;;;10.80;;
51732;SDS011;39139;53.144;6.244;2023-05-10T00:46:24;12.63;;;11.48;;
51732;SDS011;39139;53.144;6.244;2023-05-10T00:48:50;11.77;;;10.25;;
51732;SDS011;39139;53.144;6.244;2023-05-10T00:51:17;11.50;;;10.40;;
51732;SDS011;39139;53.144;6.244;2023-05-10T00:53:46;10.95;;;9.95;;
51732;SDS011;39139;53.144;6.244;2023-05-10T00:56:13;10.75;;;9.75;;
51732;SDS011;39139;53.144;6.244;2023-05-10T00:58:39;10.50;;;9.50;;
51732;SDS011;39139;53.144;6.244;2023-05-10T01:01:05;10.60;;;9.63;;
51732;SDS011;39139;53.144;6.244;2023-05-10T01:03:32;10.82;;;9.73;;
51732;SDS011;39139;53.144;6.244;2023-05-10T01:05:57;10.40;;;9.50;;
51732;SDS011;39139;53.144;6.244;2023-05-10T01:08:23;11.73;;;10.52;;
51732;SDS011;39139;53.144;6.244;2023-05-10T01:10:50;11.15;;;9.90;;
51732;SDS011;39139;53.144;6.244;2023-05-10T01:13:23;11.57;;;10.40;;
51732;SDS011;39139;53.144;6.244;2023-05-10T01:16:11;10.52;;;9.57;;
51732;SDS011;39139;53.144;6.244;2023-05-10T01:18:40;11.23;;;10.13;;
51732;SDS011;39139;53.144;6.244;2023-05-10T01:26:23;11.80;;;10.77;;
51732;SDS011;39139;53.144;6.244;2023-05-10T01:32:02;12.10;;;10.90;;
51732;SDS011;39139;53.144;6.244;2023-05-10T01:37:21;13.00;;;11.63;;
51732;SDS011;39139;53.144;6.244;2023-05-10T01:42:44;14.82;;;13.43;;
51732;SDS011;39139;53.144;6.244;2023-05-10T01:50:15;13.38;;;12.10;;
51732;SDS011;39139;53.144;6.244;2023-05-10T01:52:53;14.00;;;12.63;;
51732;SDS011;39139;53.144;6.244;2023-05-10T01:55:20;15.75;;;14.10;;
51732;SDS011;39139;53.144;6.244;2023-05-10T01:57:51;15.57;;;13.97;;
51732;SDS011;39139;53.144;6.244;2023-05-10T02:00:20;18.52;;;15.60;;
51732;SDS011;39139;53.144;6.244;2023-05-10T02:02:48;16.83;;;14.63;;
51732;SDS011;39139;53.144;6.244;2023-05-10T02:05:15;20.90;;;15.75;;
51732;SDS011;39139;53.144;6.244;2023-05-10T02:07:42;17.17;;;14.52;;
51732;SDS011;39139;53.144;6.244;2023-05-10T02:10:09;18.30;;;16.02;;
51732;SDS011;39139;53.144;6.244;2023-05-10T02:12:36;17.88;;;15.63;;
51732;SDS011;39139;53.144;6.244;2023-05-10T02:15:05;21.70;;;16.23;;
51732;SDS011;39139;53.144;6.244;2023-05-10T02:17:32;20.63;;;17.48;;
51732;SDS011;39139;53.144;6.244;2023-05-10T02:19:58;23.38;;;18.45;;
51732;SDS011;39139;53.144;6.244;2023-05-10T02:22:26;25.40;;;19.20;;
51732;SDS011;39139;53.144;6.244;2023-05-10T02:24:53;26.75;;;20.85;;
51732;SDS011;39139;53.144;6.244;2023-05-10T02:27:22;27.42;;;21.17;;
51732;SDS011;39139;53.144;6.244;2023-05-10T02:29:50;26.27;;;20.52;;
51732;SDS011;39139;53.144;6.244;2023-05-10T02:32:17;28.45;;;22.45;;
51732;SDS011;39139;53.144;6.244;2023-05-10T02:34:44;30.02;;;23.20;;
51732;SDS011;39139;53.144;6.244;2023-05-10T02:37:12;28.27;;;22.02;;
51732;SDS011;39139;53.144;6.244;2023-05-10T02:39:40;31.75;;;24.75;;
51732;SDS011;39139;53.144;6.244;2023-05-10T02:42:11;31.27;;;23.65;;
51732;SDS011;39139;53.144;6.244;2023-05-10T02:44:41;33.72;;;23.45;;
51732;SDS011;39139;53.144;6.244;2023-05-10T02:47:08;36.42;;;25.50;;
51732;SDS011;39139;53.144;6.244;2023-05-10T02:49:33;36.47;;;26.58;;
51732;SDS011;39139;53.144;6.244;2023-05-10T02:52:00;44.30;;;26.65;;
51732;SDS011;39139;53.144;6.244;2023-05-10T02:54:29;43.80;;;28.05;;
51732;SDS011;39139;53.144;6.244;2023-05-10T02:56:58;44.75;;;27.17;;
51732;SDS011;39139;53.144;6.244;2023-05-10T02:59:27;46.72;;;26.33;;
51732;SDS011;39139;53.144;6.244;2023-05-10T03:01:53;45.03;;;26.83;;
51732;SDS011;39139;53.144;6.244;2023-05-10T03:04:19;52.25;;;29.38;;
51732;SDS011;39139;53.144;6.244;2023-05-10T03:06:44;58.00;;;28.85;;
51732;SDS011;39139;53.144;6.244;2023-05-10T03:09:10;48.45;;;27.88;;
51732;SDS011;39139;53.144;6.244;2023-05-10T03:11:56;58.05;;;27.88;;
51732;SDS011;39139;53.144;6.244;2023-05-10T03:17:30;52.00;;;26.58;;
51732;SDS011;39139;53.144;6.244;2023-05-10T03:20:08;48.63;;;27.27;;
51732;SDS011;39139;53.144;6.244;2023-05-10T03:22:44;41.45;;;25.30;;
51732;SDS011;39139;53.144;6.244;2023-05-10T03:25:12;49.67;;;27.35;;
51732;SDS011;39139;53.144;6.244;2023-05-10T03:27:42;42.90;;;26.55;;
51732;SDS011;39139;53.144;6.244;2023-05-10T03:30:08;44.85;;;26.40;;
51732;SDS011;39139;53.144;6.244;2023-05-10T03:32:36;36.90;;;24.38;;
51732;SDS011;39139;53.144;6.244;2023-05-10T03:35:09;42.42;;;26.33;;
51732;SDS011;39139;53.144;6.244;2023-05-10T03:37:35;39.10;;;25.27;;
51732;SDS011;39139;53.144;6.244;2023-05-10T03:40:01;37.25;;;24.20;;
51732;SDS011;39139;53.144;6.244;2023-05-10T03:42:27;38.88;;;26.00;;
51732;SDS011;39139;53.144;6.244;2023-05-10T03:44:53;35.03;;;25.35;;
51732;SDS011;39139;53.144;6.244;2023-05-10T03:47:19;37.00;;;24.55;;
51732;SDS011;39139;53.144;6.244;2023-05-10T03:49:44;34.88;;;24.48;;
51732;SDS011;39139;53.144;6.244;2023-05-10T03:52:10;32.05;;;23.50;;
51732;SDS011;39139;53.144;6.244;2023-05-10T03:54:37;27.65;;;20.45;;
51732;SDS011;39139;53.144;6.244;2023-05-10T03:57:02;28.58;;;21.52;;
51732;SDS011;39139;53.144;6.244;2023-05-10T03:59:28;27.77;;;19.75;;
51732;SDS011;39139;53.144;6.244;2023-05-10T04:01:55;23.20;;;18.80;;
51732;SDS011;39139;53.144;6.244;2023-05-10T04:04:20;23.17;;;17.00;;
51732;SDS011;39139;53.144;6.244;2023-05-10T04:06:46;15.80;;;13.35;;
51732;SDS011;39139;53.144;6.244;2023-05-10T04:09:12;13.98;;;12.35;;
51732;SDS011;39139;53.144;6.244;2023-05-10T04:11:38;14.20;;;11.32;;
51732;SDS011;39139;53.144;6.244;2023-05-10T04:14:04;12.35;;;11.15;;
51732;SDS011;39139;53.144;6.244;2023-05-10T04:16:29;13.02;;;11.55;;
51732;SDS011;39139;53.144;6.244;2023-05-10T04:18:55;12.70;;;11.32;;
51732;SDS011;39139;53.144;6.244;2023-05-10T04:21:21;9.55;;;8.55;;
51732;SDS011;39139;53.144;6.244;2023-05-10T04:23:46;8.77;;;7.97;;
51732;SDS011;39139;53.144;6.244;2023-05-10T04:26:12;6.70;;;5.78;;
51732;SDS011;39139;53.144;6.244;2023-05-10T04:28:38;4.82;;;4.43;;
51732;SDS011;39139;53.144;6.244;2023-05-10T04:31:04;5.38;;;2.90;;
51732;SDS011;39139;53.144;6.244;2023-05-10T04:33:30;5.38;;;3.92;;
51732;SDS011;39139;53.144;6.244;2023-05-10T04:35:56;4.38;;;4.00;;
51732;SDS011;39139;53.144;6.244;2023-05-10T04:38:22;6.30;;;5.32;;
51732;SDS011;39139;53.144;6.244;2023-05-10T04:40:48;6.45;;;5.68;;
51732;SDS011;39139;53.144;6.244;2023-05-10T04:43:13;6.10;;;5.38;;
51732;SDS011;39139;53.144;6.244;2023-05-10T04:45:39;7.00;;;6.40;;
51732;SDS011;39139;53.144;6.244;2023-05-10T04:48:04;7.32;;;6.75;;
51732;SDS011;39139;53.144;6.244;2023-05-10T04:50:30;9.60;;;7.68;;
51732;SDS011;39139;53.144;6.244;2023-05-10T04:52:56;11.38;;;9.85;;
51732;SDS011;39139;53.144;6.244;2023-05-10T04:55:22;13.18;;;11.10;;
51732;SDS011;39139;53.144;6.244;2023-05-10T04:57:48;17.08;;;13.18;;
51732;SDS011;39139;53.144;6.244;2023-05-10T05:00:14;17.13;;;13.00;;
51732;SDS011;39139;53.144;6.244;2023-05-10T05:02:43;17.75;;;13.13;;
51732;SDS011;39139;53.144;6.244;2023-05-10T05:05:10;14.45;;;12.05;;
51732;SDS011;39139;53.144;6.244;2023-05-10T05:07:36;17.05;;;13.27;;
51732;SDS011;39139;53.144;6.244;2023-05-10T05:10:03;16.10;;;14.00;;
51732;SDS011;39139;53.144;6.244;2023-05-10T05:12:30;17.25;;;12.18;;
51732;SDS011;39139;53.144;6.244;2023-05-10T05:14:56;20.67;;;13.15;;
51732;SDS011;39139;53.144;6.244;2023-05-10T05:17:21;18.58;;;13.85;;
51732;SDS011;39139;53.144;6.244;2023-05-10T05:19:47;21.95;;;15.15;;
51732;SDS011;39139;53.144;6.244;2023-05-10T05:22:13;21.42;;;15.02;;
51732;SDS011;39139;53.144;6.244;2023-05-10T05:24:38;24.20;;;16.50;;
51732;SDS011;39139;53.144;6.244;2023-05-10T05:27:04;29.50;;;18.75;;
51732;SDS011;39139;53.144;6.244;2023-05-10T05:29:30;25.52;;;17.63;;
51732;SDS011;39139;53.144;6.244;2023-05-10T05:31:56;27.20;;;18.08;;
51732;SDS011;39139;53.144;6.244;2023-05-10T05:34:22;25.15;;;17.95;;
51732;SDS011;39139;53.144;6.244;2023-05-10T05:36:47;25.73;;;16.27;;
51732;SDS011;39139;53.144;6.244;2023-05-10T05:39:13;18.73;;;15.15;;
51732;SDS011;39139;53.144;6.244;2023-05-10T05:41:39;20.15;;;14.98;;
51732;SDS011;39139;53.144;6.244;2023-05-10T05:44:04;21.83;;;15.25;;
51732;SDS011;39139;53.144;6.244;2023-05-10T05:46:30;17.88;;;15.23;;
51732;SDS011;39139;53.144;6.244;2023-05-10T05:48:56;17.23;;;12.95;;
51732;SDS011;39139;53.144;6.244;2023-05-10T05:51:21;13.27;;;11.43;;
51732;SDS011;39139;53.144;6.244;2023-05-10T05:53:47;10.70;;;9.32;;
51732;SDS011;39139;53.144;6.244;2023-05-10T05:56:13;5.18;;;4.45;;
51732;SDS011;39139;53.144;6.244;2023-05-10T05:58:38;2.50;;;2.40;;
51732;SDS011;39139;53.144;6.244;2023-05-10T06:01:04;2.13;;;1.73;;
51732;SDS011;39139;53.144;6.244;2023-05-10T06:03:30;1.80;;;1.73;;
51732;SDS011;39139;53.144;6.244;2023-05-10T06:05:55;2.30;;;2.20;;
51732;SDS011;39139;53.144;6.244;2023-05-10T06:08:21;2.42;;;2.33;;
51732;SDS011;39139;53.144;6.244;2023-05-10T06:10:47;2.17;;;2.08;;
51732;SDS011;39139;53.144;6.244;2023-05-10T06:13:13;2.92;;;2.72;;
51732;SDS011;39139;53.144;6.244;2023-05-10T06:15:38;2.15;;;2.05;;
51732;SDS011;39139;53.144;6.244;2023-05-10T06:18:05;2.22;;;1.98;;
51732;SDS011;39139;53.144;6.244;2023-05-10T06:20:31;1.75;;;1.65;;
51732;SDS011;39139;53.144;6.244;2023-05-10T06:22:56;3.17;;;1.65;;
51732;SDS011;39139;53.144;6.244;2023-05-10T06:25:23;2.67;;;1.88;;
51732;SDS011;39139;53.144;6.244;2023-05-10T06:27:49;1.60;;;1.25;;
51732;SDS011;39139;53.144;6.244;2023-05-10T06:30:14;1.73;;;1.65;;
51732;SDS011;39139;53.144;6.244;2023-05-10T06:32:40;1.88;;;1.77;;
51732;SDS011;39139;53.144;6.244;2023-05-10T06:35:08;2.50;;;2.30;;
51732;SDS011;39139;53.144;6.244;2023-05-10T06:37:34;2.75;;;2.15;;
51732;SDS011;39139;53.144;6.244;2023-05-10T06:40:00;2.15;;;2.05;;
51732;SDS011;39139;53.144;6.244;2023-05-10T06:42:25;2.25;;;2.00;;
51732;SDS011;39139;53.144;6.244;2023-05-10T06:44:52;3.28;;;3.08;;
51732;SDS011;39139;53.144;6.244;2023-05-10T06:47:18;3.80;;;3.60;;
51732;SDS011;39139;53.144;6.244;2023-05-10T06:49:43;4.55;;;3.97;;
51732;SDS011;39139;53.144;6.244;2023-05-10T06:52:09;5.03;;;4.63;;
51732;SDS011;39139;53.144;6.244;2023-05-10T06:54:34;7.13;;;6.53;;
51732;SDS011;39139;53.144;6.244;2023-05-10T06:57:00;7.43;;;6.78;;
51732;SDS011;39139;53.144;6.244;2023-05-10T06:59:27;7.25;;;6.53;;
51732;SDS011;39139;53.144;6.244;2023-05-10T07:01:53;8.05;;;6.97;;
51732;SDS011;39139;53.144;6.244;2023-05-10T07:04:19;8.38;;;7.38;;
51732;SDS011;39139;53.144;6.244;2023-05-10T07:06:44;8.00;;;7.38;;
51732;SDS011;39139;53.144;6.244;2023-05-10T07:09:11;6.70;;;6.20;;
51732;SDS011;39139;53.144;6.244;2023-05-10T07:11:37;6.85;;;5.60;;
51732;SDS011;39139;53.144;6.244;2023-05-10T07:14:02;7.30;;;6.65;;
51732;SDS011;39139;53.144;6.244;2023-05-10T07:16:28;6.63;;;5.97;;
51732;SDS011;39139;53.144;6.244;2023-05-10T07:18:54;6.78;;;6.18;;
51732;SDS011;39139;53.144;6.244;2023-05-10T07:21:19;5.55;;;5.25;;
51732;SDS011;39139;53.144;6.244;2023-05-10T07:23:45;5.22;;;4.53;;
51732;SDS011;39139;53.144;6.244;2023-05-10T07:26:11;5.05;;;4.57;;
51732;SDS011;39139;53.144;6.244;2023-05-10T07:28:36;5.40;;;4.90;;
51732;SDS011;39139;53.144;6.244;2023-05-10T07:31:04;5.50;;;4.85;;
51732;SDS011;39139;53.144;6.244;2023-05-10T07:33:29;7.13;;;5.15;;
51732;SDS011;39139;53.144;6.244;2023-05-10T07:35:55;4.95;;;4.63;;
51732;SDS011;39139;53.144;6.244;2023-05-10T07:38:20;5.68;;;4.50;;
51732;SDS011;39139;53.144;6.244;2023-05-10T07:40:46;5.15;;;4.70;;
51732;SDS011;39139;53.144;6.244;2023-05-10T07:43:12;5.45;;;5.05;;
51732;SDS011;39139;53.144;6.244;2023-05-10T07:45:37;6.47;;;4.53;;
51732;SDS011;39139;53.144;6.244;2023-05-10T07:48:03;5.65;;;4.32;;
51732;SDS011;39139;53.144;6.244;2023-05-10T07:50:29;5.13;;;4.70;;
51732;SDS011;39139;53.144;6.244;2023-05-10T07:52:54;5.28;;;4.82;;
51732;SDS011;39139;53.144;6.244;2023-05-10T07:55:20;5.65;;;5.10;;
51732;SDS011;39139;53.144;6.244;2023-05-10T07:57:46;5.65;;;5.10;;
51732;SDS011;39139;53.144;6.244;2023-05-10T08:00:12;5.13;;;4.82;;
51732;SDS011;39139;53.144;6.244;2023-05-10T08:02:41;5.40;;;4.90;;
51732;SDS011;39139;53.144;6.244;2023-05-10T08:05:07;4.60;;;4.30;;
51732;SDS011;39139;53.144;6.244;2023-05-10T08:07:33;5.13;;;4.68;;
51732;SDS011;39139;53.144;6.244;2023-05-10T08:09:59;6.15;;;4.75;;
51732;SDS011;39139;53.144;6.244;2023-05-10T08:12:25;5.13;;;4.70;;
51732;SDS011;39139;53.144;6.244;2023-05-10T08:14:50;6.10;;;4.50;;
51732;SDS011;39139;53.144;6.244;2023-05-10T08:17:16;6.00;;;5.45;;
51732;SDS011;39139;53.144;6.244;2023-05-10T08:19:41;5.75;;;5.25;;
51732;SDS011;39139;53.144;6.244;2023-05-10T08:22:07;5.90;;;5.20;;
51732;SDS011;39139;53.144;6.244;2023-05-10T08:24:33;6.50;;;5.80;;
51732;SDS011;39139;53.144;6.244;2023-05-10T08:27:03;6.47;;;5.97;;
51732;SDS011;39139;53.144;6.244;2023-05-10T08:29:31;8.60;;;6.60;;
51732;SDS011;39139;53.144;6.244;2023-05-10T08:31:57;6.50;;;5.90;;
51732;SDS011;39139;53.144;6.244;2023-05-10T08:34:22;6.32;;;5.82;;
51732;SDS011;39139;53.144;6.244;2023-05-10T08:36:48;14.20;;;6.53;;
51732;SDS011;39139;53.144;6.244;2023-05-10T08:39:14;5.97;;;5.38;;
51732;SDS011;39139;53.144;6.244;2023-05-10T08:41:39;6.35;;;5.30;;
51732;SDS011;39139;53.144;6.244;2023-05-10T08:44:09;5.82;;;4.97;;
51732;SDS011;39139;53.144;6.244;2023-05-10T08:46:35;5.88;;;5.25;;
51732;SDS011;39139;53.144;6.244;2023-05-10T08:49:04;6.20;;;4.20;;
51732;SDS011;39139;53.144;6.244;2023-05-10T08:51:34;6.07;;;4.18;;
51732;SDS011;39139;53.144;6.244;2023-05-10T08:54:02;6.27;;;4.60;;
51732;SDS011;39139;53.144;6.244;2023-05-10T08:56:29;6.50;;;4.57;;
51732;SDS011;39139;53.144;6.244;2023-05-10T08:58:55;4.55;;;4.18;;
51732;SDS011;39139;53.144;6.244;2023-05-10T09:01:21;6.63;;;5.22;;
51732;SDS011;39139;53.144;6.244;2023-05-10T09:03:47;5.93;;;4.78;;
51732;SDS011;39139;53.144;6.244;2023-05-10T09:06:13;6.30;;;5.18;;
51732;SDS011;39139;53.144;6.244;2023-05-10T09:08:39;6.82;;;5.20;;
51732;SDS011;39139;53.144;6.244;2023-05-10T09:11:06;6.40;;;5.78;;
51732;SDS011;39139;53.144;6.244;2023-05-10T09:13:33;7.03;;;5.97;;
51732;SDS011;39139;53.144;6.244;2023-05-10T09:16:02;8.50;;;6.35;;
51732;SDS011;39139;53.144;6.244;2023-05-10T09:18:28;8.52;;;6.45;;
51732;SDS011;39139;53.144;6.244;2023-05-10T09:20:54;7.15;;;6.32;;
51732;SDS011;39139;53.144;6.244;2023-05-10T09:23:20;8.45;;;6.43;;
51732;SDS011;39139;53.144;6.244;2023-05-10T09:25:45;13.77;;;8.02;;
51732;SDS011;39139;53.144;6.244;2023-05-10T09:28:11;7.00;;;6.35;;
51732;SDS011;39139;53.144;6.244;2023-05-10T09:30:37;8.32;;;6.70;;
51732;SDS011;39139;53.144;6.244;2023-05-10T09:33:03;6.05;;;5.55;;
51732;SDS011;39139;53.144;6.244;2023-05-10T09:35:30;6.70;;;4.95;;
51732;SDS011;39139;53.144;6.244;2023-05-10T09:37:58;7.10;;;5.30;;
51732;SDS011;39139;53.144;6.244;2023-05-10T09:40:27;7.80;;;5.32;;
51732;SDS011;39139;53.144;6.244;2023-05-10T09:42:55;6.93;;;5.60;;
51732;SDS011;39139;53.144;6.244;2023-05-10T09:45:24;6.22;;;4.95;;
51732;SDS011;39139;53.144;6.244;2023-05-10T09:47:52;4.80;;;4.50;;
51732;SDS011;39139;53.144;6.244;2023-05-10T09:50:18;6.38;;;5.78;;
51732;SDS011;39139;53.144;6.244;2023-05-10T09:52:51;6.07;;;5.47;;
51732;SDS011;39139;53.144;6.244;2023-05-10T09:55:22;6.30;;;5.70;;
51732;SDS011;39139;53.144;6.244;2023-05-10T09:57:58;5.30;;;4.65;;
51732;SDS011;39139;53.144;6.244;2023-05-10T10:00:26;5.32;;;4.90;;
51732;SDS011;39139;53.144;6.244;2023-05-10T10:02:58;6.07;;;5.32;;
51732;SDS011;39139;53.144;6.244;2023-05-10T10:05:28;5.85;;;5.35;;
51732;SDS011;39139;53.144;6.244;2023-05-10T10:07:57;6.93;;;6.22;;
51732;SDS011;39139;53.144;6.244;2023-05-10T10:10:24;5.93;;;5.38;;
51732;SDS011;39139;53.144;6.244;2023-05-10T10:12:51;5.18;;;4.75;;
51732;SDS011;39139;53.144;6.244;2023-05-10T10:15:17;7.40;;;6.65;;
51732;SDS011;39139;53.144;6.244;2023-05-10T10:17:44;6.20;;;4.80;;
51732;SDS011;39139;53.144;6.244;2023-05-10T10:20:11;6.78;;;5.05;;
51732;SDS011;39139;53.144;6.244;2023-05-10T10:22:37;7.05;;;6.35;;
51732;SDS011;39139;53.144;6.244;2023-05-10T10:25:07;7.68;;;6.57;;
51732;SDS011;39139;53.144;6.244;2023-05-10T10:27:40;11.45;;;6.95;;
51732;SDS011;39139;53.144;6.244;2023-05-10T10:30:37;8.25;;;7.13;;
51732;SDS011;39139;53.144;6.244;2023-05-10T10:36:19;9.13;;;7.68;;
51732;SDS011;39139;53.144;6.244;2023-05-10T10:41:27;8.50;;;7.70;;
51732;SDS011;39139;53.144;6.244;2023-05-10T10:57:54;9.88;;;8.85;;
51732;SDS011;39139;53.144;6.244;2023-05-10T11:00:26;10.88;;;9.50;;
51732;SDS011;39139;53.144;6.244;2023-05-10T11:02:54;16.20;;;10.52;;
51732;SDS011;39139;53.144;6.244;2023-05-10T11:10:33;10.95;;;8.07;;
51732;SDS011;39139;53.144;6.244;2023-05-10T11:15:35;11.68;;;8.40;;
51732;SDS011;39139;53.144;6.244;2023-05-10T11:18:24;7.68;;;6.93;;
51732;SDS011;39139;53.144;6.244;2023-05-10T11:20:52;9.38;;;7.03;;
51732;SDS011;39139;53.144;6.244;2023-05-10T11:26:11;8.90;;;7.90;;
51732;SDS011;39139;53.144;6.244;2023-05-10T11:31:10;9.85;;;7.05;;
51732;SDS011;39139;53.144;6.244;2023-05-10T11:33:48;7.60;;;6.68;;
51732;SDS011;39139;53.144;6.244;2023-05-10T11:36:16;8.48;;;6.95;;
51732;SDS011;39139;53.144;6.244;2023-05-10T11:38:43;9.43;;;7.40;;
51732;SDS011;39139;53.144;6.244;2023-05-10T11:41:09;6.93;;;6.30;;
51732;SDS011;39139;53.144;6.244;2023-05-10T11:43:39;9.65;;;7.20;;
51732;SDS011;39139;53.144;6.244;2023-05-10T11:46:10;7.07;;;6.28;;
51732;SDS011;39139;53.144;6.244;2023-05-10T11:48:38;8.80;;;7.32;;
51732;SDS011;39139;53.144;6.244;2023-05-10T11:51:06;8.07;;;7.22;;
51732;SDS011;39139;53.144;6.244;2023-05-10T11:53:32;9.30;;;7.20;;
51732;SDS011;39139;53.144;6.244;2023-05-10T11:56:08;7.63;;;6.85;;
51732;SDS011;39139;53.144;6.244;2023-05-10T11:58:35;7.53;;;6.68;;
51732;SDS011;39139;53.144;6.244;2023-05-10T12:01:05;7.72;;;6.22;;
51732;SDS011;39139;53.144;6.244;2023-05-10T12:03:32;8.40;;;6.70;;
51732;SDS011;39139;53.144;6.244;2023-05-10T12:05:59;7.80;;;6.88;;
51732;SDS011;39139;53.144;6.244;2023-05-10T12:08:26;6.90;;;6.28;;
51732;SDS011;39139;53.144;6.244;2023-05-10T12:10:53;8.98;;;7.22;;
51732;SDS011;39139;53.144;6.244;2023-05-10T12:13:28;11.10;;;8.00;;
51732;SDS011;39139;53.144;6.244;2023-05-10T12:15:57;9.57;;;6.85;;
51732;SDS011;39139;53.144;6.244;2023-05-10T12:18:23;8.47;;;7.43;;
51732;SDS011;39139;53.144;6.244;2023-05-10T12:20:53;9.55;;;7.13;;
51732;SDS011;39139;53.144;6.244;2023-05-10T12:23:18;10.18;;;7.18;;
51732;SDS011;39139;53.144;6.244;2023-05-10T12:25:45;9.55;;;7.30;;
51732;SDS011;39139;53.144;6.244;2023-05-10T12:28:11;7.57;;;6.32;;
51732;SDS011;39139;53.144;6.244;2023-05-10T12:30:37;12.43;;;7.40;;
51732;SDS011;39139;53.144;6.244;2023-05-10T12:33:10;10.13;;;7.28;;
51732;SDS011;39139;53.144;6.244;2023-05-10T12:35:44;8.82;;;7.78;;
51732;SDS011;39139;53.144;6.244;2023-05-10T12:38:34;7.22;;;6.38;;
51732;SDS011;39139;53.144;6.244;2023-05-10T12:41:07;7.95;;;6.45;;
51732;SDS011;39139;53.144;6.244;2023-05-10T12:43:37;8.63;;;7.82;;
51732;SDS011;39139;53.144;6.244;2023-05-10T12:48:36;7.20;;;6.47;;
51732;SDS011;39139;53.144;6.244;2023-05-10T12:51:03;7.50;;;6.72;;
51732;SDS011;39139;53.144;6.244;2023-05-10T12:53:30;10.43;;;7.32;;
51732;SDS011;39139;53.144;6.244;2023-05-10T12:55:55;10.57;;;8.35;;
51732;SDS011;39139;53.144;6.244;2023-05-10T12:58:21;11.77;;;8.27;;
51732;SDS011;39139;53.144;6.244;2023-05-10T13:00:47;9.73;;;8.73;;
51732;SDS011;39139;53.144;6.244;2023-05-10T13:03:13;7.93;;;7.15;;
51732;SDS011;39139;53.144;6.244;2023-05-10T13:05:39;6.80;;;6.20;;
51732;SDS011;39139;53.144;6.244;2023-05-10T13:08:05;8.38;;;6.82;;
51732;SDS011;39139;53.144;6.244;2023-05-10T13:10:30;7.22;;;6.53;;
51732;SDS011;39139;53.144;6.244;2023-05-10T13:12:57;6.60;;;5.97;;
51732;SDS011;39139;53.144;6.244;2023-05-10T13:15:23;8.02;;;6.80;;
51732;SDS011;39139;53.144;6.244;2023-05-10T13:17:50;7.57;;;6.75;;
51732;SDS011;39139;53.144;6.244;2023-05-10T13:20:15;6.60;;;5.97;;
51732;SDS011;39139;53.144;6.244;2023-05-10T13:22:42;7.57;;;6.32;;
51732;SDS011;39139;53.144;6.244;2023-05-10T13:25:08;7.68;;;6.82;;
51732;SDS011;39139;53.144;6.244;2023-05-10T13:27:34;7.20;;;6.55;;
51732;SDS011;39139;53.144;6.244;2023-05-10T13:30:00;7.32;;;6.63;;
51732;SDS011;39139;53.144;6.244;2023-05-10T13:32:28;7.20;;;6.50;;
51732;SDS011;39139;53.144;6.244;2023-05-10T13:34:54;6.82;;;5.75;;
51732;SDS011;39139;53.144;6.244;2023-05-10T13:37:20;8.13;;;6.72;;
51732;SDS011;39139;53.144;6.244;2023-05-10T13:39:46;6.40;;;5.80;;
51732;SDS011;39139;53.144;6.244;2023-05-10T13:42:12;12.90;;;6.78;;
51732;SDS011;39139;53.144;6.244;2023-05-10T13:44:37;11.82;;;8.52;;
51732;SDS011;39139;53.144;6.244;2023-05-10T13:47:04;9.57;;;8.38;;
51732;SDS011;39139;53.144;6.244;2023-05-10T13:49:29;10.88;;;9.27;;
51732;SDS011;39139;53.144;6.244;2023-05-10T13:51:55;11.30;;;10.05;;
51732;SDS011;39139;53.144;6.244;2023-05-10T13:54:21;10.27;;;9.25;;
51732;SDS011;39139;53.144;6.244;2023-05-10T13:56:47;11.40;;;10.20;;
51732;SDS011;39139;53.144;6.244;2023-05-10T13:59:13;11.50;;;10.32;;
51732;SDS011;39139;53.144;6.244;2023-05-10T14:01:42;10.00;;;8.48;;
51732;SDS011;39139;53.144;6.244;2023-05-10T14:04:08;10.30;;;9.30;;
51732;SDS011;39139;53.144;6.244;2023-05-10T14:06:38;9.90;;;8.90;;
51732;SDS011;39139;53.144;6.244;2023-05-10T14:09:03;10.70;;;8.43;;
51732;SDS011;39139;53.144;6.244;2023-05-10T14:11:30;10.73;;;9.50;;
51732;SDS011;39139;53.144;6.244;2023-05-10T14:13:56;9.35;;;8.45;;
51732;SDS011;39139;53.144;6.244;2023-05-10T14:16:21;10.52;;;8.98;;
51732;SDS011;39139;53.144;6.244;2023-05-10T14:18:47;9.02;;;8.13;;
51732;SDS011;39139;53.144;6.244;2023-05-10T14:21:13;11.93;;;8.98;;
51732;SDS011;39139;53.144;6.244;2023-05-10T14:23:38;9.00;;;7.40;;
51732;SDS011;39139;53.144;6.244;2023-05-10T14:26:04;8.48;;;7.47;;
51732;SDS011;39139;53.144;6.244;2023-05-10T14:28:30;9.75;;;7.75;;
51732;SDS011;39139;53.144;6.244;2023-05-10T14:30:55;7.95;;;7.15;;
51732;SDS011;39139;53.144;6.244;2023-05-10T14:33:21;7.80;;;6.85;;
51732;SDS011;39139;53.144;6.244;2023-05-10T14:35:47;7.55;;;6.85;;
51732;SDS011;39139;53.144;6.244;2023-05-10T14:38:13;6.85;;;6.15;;
51732;SDS011;39139;53.144;6.244;2023-05-10T14:40:39;8.02;;;7.15;;
51732;SDS011;39139;53.144;6.244;2023-05-10T14:43:05;8.02;;;7.22;;
51732;SDS011;39139;53.144;6.244;2023-05-10T14:45:30;9.38;;;7.20;;
51732;SDS011;39139;53.144;6.244;2023-05-10T14:47:56;8.30;;;7.25;;
51732;SDS011;39139;53.144;6.244;2023-05-10T14:50:22;7.18;;;6.47;;
51732;SDS011;39139;53.144;6.244;2023-05-10T14:52:48;8.18;;;7.10;;
51732;SDS011;39139;53.144;6.244;2023-05-10T14:55:14;8.98;;;7.47;;
51732;SDS011;39139;53.144;6.244;2023-05-10T14:57:40;8.13;;;6.47;;
51732;SDS011;39139;53.144;6.244;2023-05-10T15:00:06;8.38;;;6.70;;
51732;SDS011;39139;53.144;6.244;2023-05-10T15:02:32;6.85;;;6.00;;
51732;SDS011;39139;53.144;6.244;2023-05-10T15:04:58;7.13;;;6.53;;
51732;SDS011;39139;53.144;6.244;2023-05-10T15:07:23;7.32;;;6.63;;
51732;SDS011;39139;53.144;6.244;2023-05-10T15:09:49;7.78;;;6.25;;
51732;SDS011;39139;53.144;6.244;2023-05-10T15:12:16;5.93;;;5.43;;
51732;SDS011;39139;53.144;6.244;2023-05-10T15:14:42;5.47;;;4.97;;
51732;SDS011;39139;53.144;6.244;2023-05-10T15:17:08;6.13;;;5.43;;
51732;SDS011;39139;53.144;6.244;2023-05-10T15:19:34;5.85;;;5.28;;
51732;SDS011;39139;53.144;6.244;2023-05-10T15:21:59;6.53;;;5.28;;
51732;SDS011;39139;53.144;6.244;2023-05-10T15:24:25;5.82;;;5.18;;
51732;SDS011;39139;53.144;6.244;2023-05-10T15:26:50;7.07;;;5.03;;
51732;SDS011;39139;53.144;6.244;2023-05-10T15:29:16;6.57;;;5.97;;
51732;SDS011;39139;53.144;6.244;2023-05-10T15:31:45;5.40;;;4.90;;
51732;SDS011;39139;53.144;6.244;2023-05-10T15:34:17;7.40;;;5.28;;